sensor_id;sensor_type;location;lat;lon;timestamp;pressure;altitude;pressure_sealevel;temperature;humidity
52745;BME280;38637;49.984;20.426;2022-08-05T00:01:27;99387.63;;;18.87;77.47
52745;BME280;38637;49.984;20.426;2022-08-05T00:03:52;99381.47;;;18.90;77.27
52745;BME280;38637;49.984;20.426;2022-08-05T00:06:18;99380.94;;;18.88;78.20
52745;BME280;38637;49.984;20.426;2022-08-05T00:08:43;99379.94;;;18.83;77.69
52745;BME280;38637;49.984;20.426;2022-08-05T00:11:09;99384.78;;;18.78;77.57
52745;BME280;38637;49.984;20.426;2022-08-05T00:13:35;99380.63;;;18.67;77.99
52745;BME280;38637;49.984;20.426;2022-08-05T00:16:02;99372.94;;;18.64;78.00
52745;BME280;38637;49.984;20.426;2022-08-05T00:18:27;99378.00;;;18.62;78.00
52745;BME280;38637;49.984;20.426;2022-08-05T00:20:52;99380.75;;;18.62;77.96
52745;BME280;38637;49.984;20.426;2022-08-05T00:23:18;99380.75;;;18.62;77.84
52745;BME280;38637;49.984;20.426;2022-08-05T00:25:43;99375.22;;;18.62;77.67
52745;BME280;38637;49.984;20.426;2022-08-05T00:28:08;99373.28;;;18.62;77.24
52745;BME280;38637;49.984;20.426;2022-08-05T00:30:34;99375.72;;;18.64;77.69
52745;BME280;38637;49.984;20.426;2022-08-05T00:32:59;99375.72;;;18.64;77.53
52745;BME280;38637;49.984;20.426;2022-08-05T00:35:24;99376.56;;;18.64;77.57
52745;BME280;38637;49.984;20.426;2022-08-05T00:37:49;99372.75;;;18.60;77.80
52745;BME280;38637;49.984;20.426;2022-08-05T00:40:14;99376.16;;;18.57;77.98
52745;BME280;38637;49.984;20.426;2022-08-05T00:42:40;99371.59;;;18.52;77.88
52745;BME280;38637;49.984;20.426;2022-08-05T00:45:06;99369.75;;;18.48;77.84
52745;BME280;38637;49.984;20.426;2022-08-05T00:47:32;99373.16;;;18.45;77.57
52745;BME280;38637;49.984;20.426;2022-08-05T00:49:57;99376.69;;;18.36;77.64
52745;BME280;38637;49.984;20.426;2022-08-05T00:52:22;99372.38;;;18.30;77.78
52745;BME280;38637;49.984;20.426;2022-08-05T00:54:48;99371.56;;;18.30;77.73
52745;BME280;38637;49.984;20.426;2022-08-05T00:57:13;99374.31;;;18.30;78.08
52745;BME280;38637;49.984;20.426;2022-08-05T00:59:38;99375.97;;;18.31;78.08
52745;BME280;38637;49.984;20.426;2022-08-05T01:02:03;99375.97;;;18.31;78.27
52745;BME280;38637;49.984;20.426;2022-08-05T01:04:28;99376.28;;;18.29;78.35
52745;BME280;38637;49.984;20.426;2022-08-05T01:06:54;99361.94;;;18.27;78.29
52745;BME280;38637;49.984;20.426;2022-08-05T01:09:19;99365.22;;;18.29;78.22
52745;BME280;38637;49.984;20.426;2022-08-05T01:11:44;99363.88;;;18.27;78.42
52745;BME280;38637;49.984;20.426;2022-08-05T01:16:53;99357.66;;;18.21;78.19
52745;BME280;38637;49.984;20.426;2022-08-05T01:24:25;99363.25;;;18.07;77.92
52745;BME280;38637;49.984;20.426;2022-08-05T01:29:39;99365.13;;;17.98;78.07
52745;BME280;38637;49.984;20.426;2022-08-05T01:32:08;99358.38;;;17.90;78.17
52745;BME280;38637;49.984;20.426;2022-08-05T01:34:38;99365.34;;;17.88;78.02
52745;BME280;38637;49.984;20.426;2022-08-05T01:37:18;99361.06;;;17.82;77.99
52745;BME280;38637;49.984;20.426;2022-08-05T01:39:46;99355.63;;;17.77;78.48
52745;BME280;38637;49.984;20.426;2022-08-05T01:42:15;99352.47;;;17.69;78.85
52745;BME280;38637;49.984;20.426;2022-08-05T01:44:41;99351.13;;;17.67;78.59
52745;BME280;38637;49.984;20.426;2022-08-05T01:47:06;99350.09;;;17.63;78.93
52745;BME280;38637;49.984;20.426;2022-08-05T01:49:33;99341.00;;;17.62;78.84
52745;BME280;38637;49.984;20.426;2022-08-05T01:52:00;99349.28;;;17.62;79.17
52745;BME280;38637;49.984;20.426;2022-08-05T01:54:29;99356.84;;;17.57;79.43
52745;BME280;38637;49.984;20.426;2022-08-05T01:56:56;99355.56;;;17.54;79.09
52745;BME280;38637;49.984;20.426;2022-08-05T01:59:21;99357.78;;;17.52;79.12
52745;BME280;38637;49.984;20.426;2022-08-05T02:01:47;99343.28;;;17.46;79.37
52745;BME280;38637;49.984;20.426;2022-08-05T02:04:13;99343.38;;;17.41;79.63
52745;BME280;38637;49.984;20.426;2022-08-05T02:06:40;99345.94;;;17.38;79.83
52745;BME280;38637;49.984;20.426;2022-08-05T02:09:05;99339.06;;;17.35;79.73
52745;BME280;38637;49.984;20.426;2022-08-05T02:11:33;99334.06;;;17.37;79.68
52745;BME280;38637;49.984;20.426;2022-08-05T02:14:03;99324.88;;;17.42;79.64
52745;BME280;38637;49.984;20.426;2022-08-05T02:16:33;99322.13;;;17.42;79.36
52745;BME280;38637;49.984;20.426;2022-08-05T02:21:35;99314.13;;;17.40;79.06
52745;BME280;38637;49.984;20.426;2022-08-05T02:24:05;99310.84;;;17.38;78.94
52745;BME280;38637;49.984;20.426;2022-08-05T02:26:34;99310.25;;;17.41;79.02
52745;BME280;38637;49.984;20.426;2022-08-05T02:29:00;99306.19;;;17.39;78.80
52745;BME280;38637;49.984;20.426;2022-08-05T02:31:26;99308.22;;;17.33;78.97
52745;BME280;38637;49.984;20.426;2022-08-05T02:33:59;99309.84;;;17.34;79.26
52745;BME280;38637;49.984;20.426;2022-08-05T02:36:25;99308.03;;;17.30;79.17
52745;BME280;38637;49.984;20.426;2022-08-05T02:38:51;99307.81;;;17.26;78.87
52745;BME280;38637;49.984;20.426;2022-08-05T02:41:19;99304.03;;;17.22;78.59
52745;BME280;38637;49.984;20.426;2022-08-05T02:43:45;99297.19;;;17.19;78.46
52745;BME280;38637;49.984;20.426;2022-08-05T02:46:14;99304.13;;;17.17;78.42
52745;BME280;38637;49.984;20.426;2022-08-05T02:48:40;99309.75;;;17.12;78.73
52745;BME280;38637;49.984;20.426;2022-08-05T02:51:05;99303.22;;;17.08;78.88
52745;BME280;38637;49.984;20.426;2022-08-05T02:53:31;99303.81;;;17.05;79.04
52745;BME280;38637;49.984;20.426;2022-08-05T02:55:56;99299.97;;;17.06;78.86
52745;BME280;38637;49.984;20.426;2022-08-05T02:58:22;99306.38;;;17.01;78.52
52745;BME280;38637;49.984;20.426;2022-08-05T03:00:49;99306.69;;;16.99;78.64
52745;BME280;38637;49.984;20.426;2022-08-05T03:03:18;99305.66;;;16.95;78.55
52745;BME280;38637;49.984;20.426;2022-08-05T03:05:44;99306.06;;;16.89;79.04
52745;BME280;38637;49.984;20.426;2022-08-05T03:08:10;99299.53;;;16.85;79.17
52745;BME280;38637;49.984;20.426;2022-08-05T03:10:35;99299.63;;;16.80;79.23
52745;BME280;38637;49.984;20.426;2022-08-05T03:13:01;99310.44;;;16.76;79.73
52745;BME280;38637;49.984;20.426;2022-08-05T03:15:26;99296.41;;;16.72;79.59
52745;BME280;38637;49.984;20.426;2022-08-05T03:17:52;99295.59;;;16.72;79.69
52745;BME280;38637;49.984;20.426;2022-08-05T03:20:18;99297.22;;;16.73;79.38
52745;BME280;38637;49.984;20.426;2022-08-05T03:22:43;99293.13;;;16.70;79.64
52745;BME280;38637;49.984;20.426;2022-08-05T03:25:08;99295.69;;;16.67;80.04
52745;BME280;38637;49.984;20.426;2022-08-05T03:27:34;99311.22;;;16.63;80.26
52745;BME280;38637;49.984;20.426;2022-08-05T03:29:59;99309.66;;;16.57;80.13
52745;BME280;38637;49.984;20.426;2022-08-05T03:32:24;99314.97;;;16.53;80.55
52745;BME280;38637;49.984;20.426;2022-08-05T03:34:50;99313.84;;;16.54;80.76
52745;BME280;38637;49.984;20.426;2022-08-05T03:37:16;99314.06;;;16.58;80.51
52745;BME280;38637;49.984;20.426;2022-08-05T03:39:54;99309.06;;;16.60;80.39
52745;BME280;38637;49.984;20.426;2022-08-05T03:42:20;99306.00;;;16.61;80.25
52745;BME280;38637;49.984;20.426;2022-08-05T03:44:46;99300.69;;;16.65;80.15
52745;BME280;38637;49.984;20.426;2022-08-05T03:47:11;99302.84;;;16.68;80.61
52745;BME280;38637;49.984;20.426;2022-08-05T03:49:36;99303.06;;;16.71;80.74
52745;BME280;38637;49.984;20.426;2022-08-05T03:52:01;99297.47;;;16.76;80.73
52745;BME280;38637;49.984;20.426;2022-08-05T03:54:34;99301.56;;;16.79;80.85
52745;BME280;38637;49.984;20.426;2022-08-05T03:57:01;99297.38;;;16.82;80.92
52745;BME280;38637;49.984;20.426;2022-08-05T03:59:33;99303.09;;;16.85;80.67
52745;BME280;38637;49.984;20.426;2022-08-05T04:01:59;99299.72;;;16.88;80.66
52745;BME280;38637;49.984;20.426;2022-08-05T04:04:25;99293.00;;;16.94;80.26
52745;BME280;38637;49.984;20.426;2022-08-05T04:06:50;99300.88;;;17.01;80.28
52745;BME280;38637;49.984;20.426;2022-08-05T04:09:16;99295.25;;;17.06;80.44
52745;BME280;38637;49.984;20.426;2022-08-05T04:11:42;99292.41;;;17.11;81.02
52745;BME280;38637;49.984;20.426;2022-08-05T04:14:07;99302.41;;;17.21;80.70
52745;BME280;38637;49.984;20.426;2022-08-05T04:16:33;99299.63;;;17.35;80.39
52745;BME280;38637;49.984;20.426;2022-08-05T04:19:01;99295.22;;;17.48;80.10
52745;BME280;38637;49.984;20.426;2022-08-05T04:21:27;99303.78;;;17.60;79.88
52745;BME280;38637;49.984;20.426;2022-08-05T04:23:52;99299.28;;;17.78;79.52
52745;BME280;38637;49.984;20.426;2022-08-05T04:26:18;99299.25;;;17.91;78.96
52745;BME280;38637;49.984;20.426;2022-08-05T04:28:43;99287.63;;;18.03;78.49
52745;BME280;38637;49.984;20.426;2022-08-05T04:31:08;99302.19;;;18.18;78.31
52745;BME280;38637;49.984;20.426;2022-08-05T04:33:34;99296.28;;;18.33;77.97
52745;BME280;38637;49.984;20.426;2022-08-05T04:35:59;99299.50;;;18.49;77.63
52745;BME280;38637;49.984;20.426;2022-08-05T04:38:24;99299.09;;;18.64;77.29
52745;BME280;38637;49.984;20.426;2022-08-05T04:40:49;99303.13;;;18.80;76.32
52745;BME280;38637;49.984;20.426;2022-08-05T04:43:15;99297.34;;;18.99;74.61
52745;BME280;38637;49.984;20.426;2022-08-05T04:45:40;99293.63;;;19.13;73.81
52745;BME280;38637;49.984;20.426;2022-08-05T04:48:10;99298.56;;;19.24;73.90
52745;BME280;38637;49.984;20.426;2022-08-05T04:50:42;99307.88;;;19.37;73.35
52745;BME280;38637;49.984;20.426;2022-08-05T04:53:08;99303.53;;;19.45;72.59
52745;BME280;38637;49.984;20.426;2022-08-05T04:55:35;99300.28;;;19.51;72.87
52745;BME280;38637;49.984;20.426;2022-08-05T04:58:00;99296.22;;;19.58;73.15
52745;BME280;38637;49.984;20.426;2022-08-05T05:00:25;99304.88;;;19.65;73.11
52745;BME280;38637;49.984;20.426;2022-08-05T05:02:51;99296.59;;;19.73;73.24
52745;BME280;38637;49.984;20.426;2022-08-05T05:05:16;99304.75;;;19.87;72.61
52745;BME280;38637;49.984;20.426;2022-08-05T05:07:41;99300.84;;;19.97;72.34
52745;BME280;38637;49.984;20.426;2022-08-05T05:10:07;99301.66;;;20.06;71.52
52745;BME280;38637;49.984;20.426;2022-08-05T05:12:32;99300.84;;;20.14;71.39
52745;BME280;38637;49.984;20.426;2022-08-05T05:14:57;99296.59;;;20.26;71.62
52745;BME280;38637;49.984;20.426;2022-08-05T05:17:22;99294.97;;;20.33;71.36
52745;BME280;38637;49.984;20.426;2022-08-05T05:19:48;99296.56;;;20.43;71.06
52745;BME280;38637;49.984;20.426;2022-08-05T05:22:13;99296.22;;;20.44;71.07
52745;BME280;38637;49.984;20.426;2022-08-05T05:24:38;99297.06;;;20.54;70.81
52745;BME280;38637;49.984;20.426;2022-08-05T05:27:03;99299.50;;;20.64;70.61
52745;BME280;38637;49.984;20.426;2022-08-05T05:29:29;99290.81;;;20.74;69.85
52745;BME280;38637;49.984;20.426;2022-08-05T05:31:54;99297.13;;;20.83;70.37
52745;BME280;38637;49.984;20.426;2022-08-05T05:34:20;99294.34;;;20.92;70.48
52745;BME280;38637;49.984;20.426;2022-08-05T05:36:46;99300.34;;;21.03;70.63
52745;BME280;38637;49.984;20.426;2022-08-05T05:39:11;99292.44;;;21.14;69.65
52745;BME280;38637;49.984;20.426;2022-08-05T05:41:36;99290.59;;;21.26;68.76
52745;BME280;38637;49.984;20.426;2022-08-05T05:44:02;99287.13;;;21.38;67.22
52745;BME280;38637;49.984;20.426;2022-08-05T05:46:27;99291.81;;;21.46;66.94
52745;BME280;38637;49.984;20.426;2022-08-05T05:48:52;99293.25;;;21.52;66.95
52745;BME280;38637;49.984;20.426;2022-08-05T05:51:18;99302.69;;;21.60;66.22
52745;BME280;38637;49.984;20.426;2022-08-05T05:53:44;99302.63;;;21.69;67.07
52745;BME280;38637;49.984;20.426;2022-08-05T05:56:09;99284.94;;;21.73;66.90
52745;BME280;38637;49.984;20.426;2022-08-05T05:58:34;99288.31;;;21.79;67.01
52745;BME280;38637;49.984;20.426;2022-08-05T06:00:59;99290.91;;;21.84;66.54
52745;BME280;38637;49.984;20.426;2022-08-05T06:03:24;99290.72;;;21.89;66.35
52745;BME280;38637;49.984;20.426;2022-08-05T06:05:50;99286.22;;;21.97;68.02
52745;BME280;38637;49.984;20.426;2022-08-05T06:08:15;99288.94;;;22.06;66.11
52745;BME280;38637;49.984;20.426;2022-08-05T06:10:41;99281.19;;;22.11;66.69
52745;BME280;38637;49.984;20.426;2022-08-05T06:13:06;99294.72;;;22.21;66.07
52745;BME280;38637;49.984;20.426;2022-08-05T06:15:31;99281.41;;;22.27;65.72
52745;BME280;38637;49.984;20.426;2022-08-05T06:17:56;99285.28;;;22.35;66.42
52745;BME280;38637;49.984;20.426;2022-08-05T06:20:21;99287.94;;;22.43;66.17
52745;BME280;38637;49.984;20.426;2022-08-05T06:22:47;99297.69;;;22.49;65.86
52745;BME280;38637;49.984;20.426;2022-08-05T06:25:12;99288.34;;;22.54;65.16
52745;BME280;38637;49.984;20.426;2022-08-05T06:27:37;99288.59;;;22.61;65.85
52745;BME280;38637;49.984;20.426;2022-08-05T06:30:03;99291.97;;;22.67;66.47
52745;BME280;38637;49.984;20.426;2022-08-05T06:32:28;99287.47;;;22.75;65.75
52745;BME280;38637;49.984;20.426;2022-08-05T06:34:53;99284.56;;;22.83;64.93
52745;BME280;38637;49.984;20.426;2022-08-05T06:37:19;99287.59;;;22.90;64.76
52745;BME280;38637;49.984;20.426;2022-08-05T06:39:44;99293.44;;;22.98;64.71
52745;BME280;38637;49.984;20.426;2022-08-05T06:42:09;99289.28;;;23.04;64.24
52745;BME280;38637;49.984;20.426;2022-08-05T06:44:34;99277.53;;;23.10;64.33
52745;BME280;38637;49.984;20.426;2022-08-05T06:47:00;99282.09;;;23.15;64.10
52745;BME280;38637;49.984;20.426;2022-08-05T06:49:25;99281.13;;;23.23;64.08
52745;BME280;38637;49.984;20.426;2022-08-05T06:51:50;99278.72;;;23.34;64.42
52745;BME280;38637;49.984;20.426;2022-08-05T06:54:15;99274.88;;;23.38;64.16
52745;BME280;38637;49.984;20.426;2022-08-05T06:56:41;99275.34;;;23.40;63.74
52745;BME280;38637;49.984;20.426;2022-08-05T06:59:06;99273.81;;;23.43;63.76
52745;BME280;38637;49.984;20.426;2022-08-05T07:01:31;99271.16;;;23.47;64.22
52745;BME280;38637;49.984;20.426;2022-08-05T07:03:56;99272.06;;;23.51;63.75
52745;BME280;38637;49.984;20.426;2022-08-05T07:06:22;99274.50;;;23.52;63.94
52745;BME280;38637;49.984;20.426;2022-08-05T07:08:47;99275.91;;;23.58;64.02
52745;BME280;38637;49.984;20.426;2022-08-05T07:11:12;99272.06;;;23.63;63.64
52745;BME280;38637;49.984;20.426;2022-08-05T07:13:38;99274.50;;;23.65;63.01
52745;BME280;38637;49.984;20.426;2022-08-05T07:16:21;99270.00;;;23.72;63.33
52745;BME280;38637;49.984;20.426;2022-08-05T07:19:05;99268.91;;;23.77;62.42
52745;BME280;38637;49.984;20.426;2022-08-05T07:21:30;99274.16;;;23.78;62.51
52745;BME280;38637;49.984;20.426;2022-08-05T07:23:56;99267.50;;;23.83;63.66
52745;BME280;38637;49.984;20.426;2022-08-05T07:26:21;99272.25;;;23.95;63.76
52745;BME280;38637;49.984;20.426;2022-08-05T07:28:46;99269.75;;;24.05;61.63
52745;BME280;38637;49.984;20.426;2022-08-05T07:31:11;99283.94;;;24.13;60.92
52745;BME280;38637;49.984;20.426;2022-08-05T07:33:37;99275.19;;;24.14;61.29
52745;BME280;38637;49.984;20.426;2022-08-05T07:36:02;99278.63;;;24.23;62.23
52745;BME280;38637;49.984;20.426;2022-08-05T07:38:27;99283.28;;;24.31;61.52
52745;BME280;38637;49.984;20.426;2022-08-05T07:40:52;99283.03;;;24.37;61.55
52745;BME280;38637;49.984;20.426;2022-08-05T07:43:18;99284.72;;;24.41;60.72
52745;BME280;38637;49.984;20.426;2022-08-05T07:45:43;99285.22;;;24.43;60.29
52745;BME280;38637;49.984;20.426;2022-08-05T07:48:08;99261.50;;;24.37;58.63
52745;BME280;38637;49.984;20.426;2022-08-05T07:50:34;99277.94;;;24.54;58.42
52745;BME280;38637;49.984;20.426;2022-08-05T07:52:59;99279.75;;;24.63;58.41
52745;BME280;38637;49.984;20.426;2022-08-05T07:55:24;99276.72;;;24.68;59.16
52745;BME280;38637;49.984;20.426;2022-08-05T07:57:50;99276.81;;;24.71;59.08
52745;BME280;38637;49.984;20.426;2022-08-05T08:00:16;99278.50;;;24.76;57.84
52745;BME280;38637;49.984;20.426;2022-08-05T08:02:41;99279.44;;;24.80;58.02
52745;BME280;38637;49.984;20.426;2022-08-05T08:05:08;99284.47;;;24.90;58.37
52745;BME280;38637;49.984;20.426;2022-08-05T08:07:33;99275.91;;;24.99;57.26
52745;BME280;38637;49.984;20.426;2022-08-05T08:09:58;99277.34;;;25.09;57.84
52745;BME280;38637;49.984;20.426;2022-08-05T08:12:24;99275.59;;;25.16;56.59
52745;BME280;38637;49.984;20.426;2022-08-05T08:14:50;99279.81;;;25.26;57.74
52745;BME280;38637;49.984;20.426;2022-08-05T08:17:16;99281.22;;;25.36;56.52
52745;BME280;38637;49.984;20.426;2022-08-05T08:19:41;99279.06;;;25.45;55.05
52745;BME280;38637;49.984;20.426;2022-08-05T08:22:07;99273.91;;;25.47;55.25
52745;BME280;38637;49.984;20.426;2022-08-05T08:24:32;99267.16;;;25.48;56.46
52745;BME280;38637;49.984;20.426;2022-08-05T08:26:58;99273.63;;;25.52;55.90
52745;BME280;38637;49.984;20.426;2022-08-05T08:29:23;99278.56;;;25.59;55.83
52745;BME280;38637;49.984;20.426;2022-08-05T08:31:49;99267.09;;;25.64;55.65
52745;BME280;38637;49.984;20.426;2022-08-05T08:34:17;99266.38;;;25.67;55.37
52745;BME280;38637;49.984;20.426;2022-08-05T08:36:43;99264.03;;;25.69;55.75
52745;BME280;38637;49.984;20.426;2022-08-05T08:39:08;99268.59;;;25.77;55.49
52745;BME280;38637;49.984;20.426;2022-08-05T08:41:33;99270.78;;;25.84;56.16
52745;BME280;38637;49.984;20.426;2022-08-05T08:44:01;99265.41;;;25.95;57.23
52745;BME280;38637;49.984;20.426;2022-08-05T08:46:28;99262.75;;;26.02;56.60
52745;BME280;38637;49.984;20.426;2022-08-05T08:48:54;99261.72;;;26.10;56.10
52745;BME280;38637;49.984;20.426;2022-08-05T08:51:20;99267.38;;;26.13;55.45
52745;BME280;38637;49.984;20.426;2022-08-05T08:53:47;99265.03;;;26.16;55.92
52745;BME280;38637;49.984;20.426;2022-08-05T08:56:13;99263.56;;;26.22;55.67
52745;BME280;38637;49.984;20.426;2022-08-05T08:58:39;99263.69;;;26.29;55.68
52745;BME280;38637;49.984;20.426;2022-08-05T09:01:05;99263.78;;;26.32;54.69
52745;BME280;38637;49.984;20.426;2022-08-05T09:03:31;99267.06;;;26.38;55.51
52745;BME280;38637;49.984;20.426;2022-08-05T09:05:56;99263.25;;;26.46;56.22
52745;BME280;38637;49.984;20.426;2022-08-05T09:08:22;99259.25;;;26.47;55.25
52745;BME280;38637;49.984;20.426;2022-08-05T09:10:47;99260.19;;;26.51;55.58
52745;BME280;38637;49.984;20.426;2022-08-05T09:13:15;99257.06;;;26.56;55.95
52745;BME280;38637;49.984;20.426;2022-08-05T09:15:40;99259.56;;;26.62;54.46
52745;BME280;38637;49.984;20.426;2022-08-05T09:18:06;99266.91;;;26.70;54.27
52745;BME280;38637;49.984;20.426;2022-08-05T09:20:32;99259.81;;;26.76;53.54
52745;BME280;38637;49.984;20.426;2022-08-05T09:23:04;99252.22;;;26.76;53.63
52745;BME280;38637;49.984;20.426;2022-08-05T09:25:30;99253.09;;;26.80;53.58
52745;BME280;38637;49.984;20.426;2022-08-05T09:27:55;99248.72;;;26.83;52.44
52745;BME280;38637;49.984;20.426;2022-08-05T09:30:20;99259.19;;;26.86;53.03
52745;BME280;38637;49.984;20.426;2022-08-05T09:32:46;99259.25;;;26.90;52.88
52745;BME280;38637;49.984;20.426;2022-08-05T09:35:15;99256.84;;;26.88;52.34
52745;BME280;38637;49.984;20.426;2022-08-05T09:37:53;99256.88;;;26.92;52.46
52745;BME280;38637;49.984;20.426;2022-08-05T09:40:32;99253.03;;;27.00;53.65
52745;BME280;38637;49.984;20.426;2022-08-05T09:42:58;99250.69;;;27.05;51.26
52745;BME280;38637;49.984;20.426;2022-08-05T09:45:33;99256.81;;;27.11;51.15
52745;BME280;38637;49.984;20.426;2022-08-05T09:47:59;99243.69;;;27.15;51.18
52745;BME280;38637;49.984;20.426;2022-08-05T09:50:34;99241.69;;;27.16;50.60
52745;BME280;38637;49.984;20.426;2022-08-05T09:53:00;99243.00;;;27.22;51.65
52745;BME280;38637;49.984;20.426;2022-08-05T09:55:25;99245.91;;;27.29;50.78
52745;BME280;38637;49.984;20.426;2022-08-05T09:57:50;99233.63;;;27.37;52.10
52745;BME280;38637;49.984;20.426;2022-08-05T10:00:20;99228.09;;;27.44;49.03
52745;BME280;38637;49.984;20.426;2022-08-05T10:02:49;99231.72;;;27.45;48.36
52745;BME280;38637;49.984;20.426;2022-08-05T10:05:28;99230.47;;;27.42;48.75
52745;BME280;38637;49.984;20.426;2022-08-05T10:07:57;99227.41;;;27.51;48.81
52745;BME280;38637;49.984;20.426;2022-08-05T10:10:26;99223.06;;;27.57;47.83
52745;BME280;38637;49.984;20.426;2022-08-05T10:12:54;99230.78;;;27.64;47.95
52745;BME280;38637;49.984;20.426;2022-08-05T10:15:33;99223.59;;;27.66;48.03
52745;BME280;38637;49.984;20.426;2022-08-05T10:20:27;99220.63;;;27.82;49.71
52745;BME280;38637;49.984;20.426;2022-08-05T10:22:52;99219.22;;;27.95;48.16
52745;BME280;38637;49.984;20.426;2022-08-05T10:25:18;99215.22;;;28.00;48.24
52745;BME280;38637;49.984;20.426;2022-08-05T10:27:43;99222.94;;;28.07;48.05
52745;BME280;38637;49.984;20.426;2022-08-05T10:30:10;99223.38;;;28.09;47.14
52745;BME280;38637;49.984;20.426;2022-08-05T10:32:35;99215.75;;;28.09;46.07
52745;BME280;38637;49.984;20.426;2022-08-05T10:35:00;99218.56;;;28.09;46.26
52745;BME280;38637;49.984;20.426;2022-08-05T10:37:26;99212.94;;;28.09;46.26
52745;BME280;38637;49.984;20.426;2022-08-05T10:39:53;99208.22;;;28.17;47.77
52745;BME280;38637;49.984;20.426;2022-08-05T10:42:21;99208.69;;;28.23;46.99
52745;BME280;38637;49.984;20.426;2022-08-05T10:44:47;99209.53;;;28.27;46.94
52745;BME280;38637;49.984;20.426;2022-08-05T10:47:13;99199.59;;;28.36;46.40
52745;BME280;38637;49.984;20.426;2022-08-05T10:49:59;99208.13;;;28.44;45.42
52745;BME280;38637;49.984;20.426;2022-08-05T10:55:05;99198.50;;;28.45;45.61
52745;BME280;38637;49.984;20.426;2022-08-05T10:57:31;99201.72;;;28.47;44.69
52745;BME280;38637;49.984;20.426;2022-08-05T11:05:28;99202.66;;;28.61;44.49
52745;BME280;38637;49.984;20.426;2022-08-05T11:07:57;99196.28;;;28.64;46.11
52745;BME280;38637;49.984;20.426;2022-08-05T11:10:23;99192.78;;;28.75;46.83
52745;BME280;38637;49.984;20.426;2022-08-05T11:12:49;99197.66;;;28.81;46.55
52745;BME280;38637;49.984;20.426;2022-08-05T11:17:39;99198.50;;;28.89;43.15
52745;BME280;38637;49.984;20.426;2022-08-05T11:20:05;99191.28;;;28.92;42.69
52745;BME280;38637;49.984;20.426;2022-08-05T11:27:47;99184.16;;;29.01;43.66
52745;BME280;38637;49.984;20.426;2022-08-05T11:30:12;99183.38;;;29.04;44.02
52745;BME280;38637;49.984;20.426;2022-08-05T11:32:37;99187.41;;;29.03;41.64
52745;BME280;38637;49.984;20.426;2022-08-05T11:35:02;99191.75;;;29.01;41.86
52745;BME280;38637;49.984;20.426;2022-08-05T11:40:11;99175.28;;;28.96;41.06
52745;BME280;38637;49.984;20.426;2022-08-05T11:42:37;99180.84;;;28.92;41.88
52745;BME280;38637;49.984;20.426;2022-08-05T11:45:04;99175.72;;;29.01;42.43
52745;BME280;38637;49.984;20.426;2022-08-05T11:47:34;99181.41;;;29.08;42.41
52745;BME280;38637;49.984;20.426;2022-08-05T11:49:59;99187.09;;;29.16;41.48
52745;BME280;38637;49.984;20.426;2022-08-05T11:52:27;99179.44;;;29.16;39.96
52745;BME280;38637;49.984;20.426;2022-08-05T11:54:53;99182.69;;;29.18;41.85
52745;BME280;38637;49.984;20.426;2022-08-05T11:57:19;99191.13;;;29.18;41.08
52745;BME280;38637;49.984;20.426;2022-08-05T11:59:46;99187.09;;;29.19;41.84
52745;BME280;38637;49.984;20.426;2022-08-05T12:02:11;99184.72;;;29.25;39.43
52745;BME280;38637;49.984;20.426;2022-08-05T12:04:40;99173.09;;;29.26;40.03
52745;BME280;38637;49.984;20.426;2022-08-05T12:07:06;99173.09;;;29.26;41.94
52745;BME280;38637;49.984;20.426;2022-08-05T12:09:35;99171.91;;;29.27;41.50
52745;BME280;38637;49.984;20.426;2022-08-05T12:12:01;99172.28;;;29.26;41.07
52745;BME280;38637;49.984;20.426;2022-08-05T12:14:34;99168.25;;;29.23;39.93
52745;BME280;38637;49.984;20.426;2022-08-05T12:16:59;99163.47;;;29.31;35.92
52745;BME280;38637;49.984;20.426;2022-08-05T12:19:30;99155.09;;;29.42;38.45
52745;BME280;38637;49.984;20.426;2022-08-05T12:22:04;99162.78;;;29.52;37.76
52745;BME280;38637;49.984;20.426;2022-08-05T12:24:29;99161.22;;;29.58;36.97
52745;BME280;38637;49.984;20.426;2022-08-05T12:26:55;99156.00;;;29.60;37.13
52745;BME280;38637;49.984;20.426;2022-08-05T12:29:21;99155.63;;;29.62;36.51
52745;BME280;38637;49.984;20.426;2022-08-05T12:31:47;99154.41;;;29.63;36.25
52745;BME280;38637;49.984;20.426;2022-08-05T12:34:13;99155.25;;;29.63;35.32
52745;BME280;38637;49.984;20.426;2022-08-05T12:36:39;99157.25;;;29.66;35.74
52745;BME280;38637;49.984;20.426;2022-08-05T12:39:05;99149.22;;;29.72;36.07
52745;BME280;38637;49.984;20.426;2022-08-05T12:41:31;99156.50;;;29.76;36.92
52745;BME280;38637;49.984;20.426;2022-08-05T12:43:58;99156.06;;;29.78;34.10
52745;BME280;38637;49.984;20.426;2022-08-05T12:46:25;99158.94;;;29.82;36.89
52745;BME280;38637;49.984;20.426;2022-08-05T12:48:57;99146.09;;;29.88;37.77
52745;BME280;38637;49.984;20.426;2022-08-05T12:51:23;99144.06;;;29.95;36.07
52745;BME280;38637;49.984;20.426;2022-08-05T12:53:48;99142.09;;;30.03;35.64
52745;BME280;38637;49.984;20.426;2022-08-05T12:56:23;99141.28;;;30.03;34.78
52745;BME280;38637;49.984;20.426;2022-08-05T13:01:33;99137.69;;;30.09;36.39
52745;BME280;38637;49.984;20.426;2022-08-05T13:04:01;99140.09;;;30.11;36.72
52745;BME280;38637;49.984;20.426;2022-08-05T13:06:26;99134.88;;;30.16;36.17
52745;BME280;38637;49.984;20.426;2022-08-05T13:08:53;99131.25;;;30.19;35.71
52745;BME280;38637;49.984;20.426;2022-08-05T13:11:27;99135.72;;;30.24;37.75
52745;BME280;38637;49.984;20.426;2022-08-05T13:13:55;99126.88;;;30.29;38.23
52745;BME280;38637;49.984;20.426;2022-08-05T13:16:21;99122.88;;;30.34;38.04
52745;BME280;38637;49.984;20.426;2022-08-05T13:18:49;99124.88;;;30.37;37.71
52745;BME280;38637;49.984;20.426;2022-08-05T13:21:14;99121.22;;;30.36;37.13
52745;BME280;38637;49.984;20.426;2022-08-05T13:23:39;99125.69;;;30.34;36.69